createdAt,value
2019-06-27T15:59:46.024Z,2.37
2019-06-27T16:00:19.735Z,2.30
2019-06-27T16:00:52.401Z,2.75
2019-06-27T16:01:25.151Z,2.60
2019-06-27T16:01:57.870Z,2.27
2019-06-27T16:02:30.843Z,2.40
2019-06-27T16:03:04.240Z,2.10
2019-06-27T16:03:37.423Z,2.35
2019-06-27T16:04:10.343Z,2.42
2019-06-27T16:04:42.998Z,2.30
2019-06-27T16:05:15.968Z,2.80
2019-06-27T16:05:48.608Z,2.25
2019-06-27T16:06:21.581Z,2.65
2019-06-27T16:06:54.212Z,2.55
2019-06-27T16:07:26.828Z,2.22
2019-06-27T16:07:59.758Z,2.58
2019-06-27T16:08:32.382Z,2.10
2019-06-27T16:09:05.923Z,2.02
2019-06-27T16:11:14.328Z,2.83
2019-06-27T16:11:47.062Z,2.10
2019-06-27T16:12:20.113Z,2.47
2019-06-27T16:12:53.503Z,2.60
2019-06-27T16:13:26.450Z,2.20
2019-06-27T16:13:59.091Z,1.80
2019-06-27T16:14:31.767Z,2.50
2019-06-27T16:15:05.511Z,2.23
2019-06-27T16:15:38.510Z,2.70
2019-06-27T16:16:11.201Z,2.37
2019-06-27T16:16:43.914Z,2.47
2019-06-27T16:17:16.580Z,2.00
2019-06-27T16:17:49.669Z,2.80
2019-06-27T16:18:22.665Z,2.10
2019-06-27T16:18:55.500Z,2.60
2019-06-27T16:19:28.207Z,2.60
2019-06-27T16:20:01.255Z,2.10
2019-06-27T16:20:33.931Z,2.17
2019-06-27T16:21:06.588Z,2.30
2019-06-27T16:21:39.245Z,2.23
2019-06-27T16:22:11.939Z,2.00
2019-06-27T16:22:44.608Z,3.20
2019-06-27T16:23:17.279Z,2.20
2019-06-27T16:23:50.684Z,2.57
2019-06-27T16:24:23.335Z,2.27
2019-06-27T16:24:56.300Z,2.00
2019-06-27T16:25:28.977Z,2.17
2019-06-27T16:26:02.093Z,2.20
2019-06-27T16:26:35.080Z,1.83
2019-06-27T16:27:08.370Z,2.20
2019-06-27T16:27:41.087Z,2.47
2019-06-27T16:28:14.035Z,2.20
2019-06-27T16:28:46.698Z,1.83
2019-06-27T16:29:19.774Z,2.50
2019-06-27T16:29:52.871Z,2.00
2019-06-27T16:30:25.657Z,2.63
2019-06-27T16:30:58.287Z,2.10
2019-06-27T16:31:30.967Z,1.90
2019-06-27T16:32:03.607Z,2.83
2019-06-27T16:32:36.304Z,2.00
2019-06-27T16:33:09.010Z,2.40
2019-06-27T16:33:42.196Z,2.20
2019-06-27T16:34:14.855Z,2.50
2019-06-27T16:34:47.537Z,2.70
2019-06-27T16:35:20.589Z,2.33
2019-06-27T16:35:54.202Z,2.23
2019-06-27T16:36:27.329Z,2.47
2019-06-27T16:36:59.961Z,1.90
2019-06-27T16:37:33.162Z,2.17
2019-06-27T16:38:05.994Z,2.07
2019-06-27T16:38:38.688Z,2.30
2019-06-27T16:39:11.380Z,2.10
2019-06-27T16:39:44.044Z,1.90
2019-06-27T16:40:17.238Z,2.07
2019-06-27T16:40:50.513Z,2.53
2019-06-27T16:41:23.185Z,2.07
2019-06-27T16:41:56.165Z,2.30
2019-06-27T16:42:29.106Z,2.00
2019-06-27T16:43:01.780Z,2.17
2019-06-27T16:43:34.469Z,2.00
2019-06-27T16:44:07.549Z,2.37
2019-06-27T16:44:40.213Z,1.87
2019-06-27T16:45:13.507Z,2.50
2019-06-27T16:45:46.149Z,2.30
2019-06-27T16:46:19.211Z,1.90
2019-06-27T16:46:51.873Z,1.90
2019-06-27T16:47:24.932Z,2.00
2019-06-27T16:47:57.760Z,2.10
2019-06-27T16:48:30.451Z,2.07
2019-06-27T16:49:03.134Z,2.20
2019-06-27T16:49:35.856Z,2.00
2019-06-27T16:50:09.852Z,2.17
2019-06-27T16:50:42.510Z,2.07
2019-06-27T16:51:15.187Z,2.03
2019-06-27T16:51:47.823Z,2.37
2019-06-27T16:52:20.491Z,1.90
2019-06-27T16:52:53.487Z,2.13
2019-06-27T16:53:26.279Z,2.10
2019-06-27T16:53:59.352Z,2.40
2019-06-27T16:54:32.800Z,2.43
2019-06-27T16:55:05.874Z,2.30
2019-06-27T16:55:38.699Z,2.30
2019-06-27T16:56:11.358Z,2.20
2019-06-27T16:56:44.504Z,2.63
2019-06-27T16:57:17.192Z,2.50
2019-06-27T16:57:50.034Z,2.20
2019-06-27T16:58:22.692Z,2.27
2019-06-27T16:58:55.370Z,2.27
2019-06-27T16:59:28.423Z,1.90
2019-06-27T17:00:01.078Z,2.60
2019-06-27T17:00:33.823Z,2.50
2019-06-27T17:01:06.484Z,2.10
2019-06-27T17:01:39.860Z,2.03
2019-06-27T17:02:12.996Z,2.43
2019-06-27T17:02:45.631Z,2.30
2019-06-27T17:03:18.890Z,2.67
2019-06-27T17:03:51.556Z,2.07
2019-06-27T17:04:24.199Z,2.30
2019-06-27T17:04:57.228Z,2.90
2019-06-27T17:05:30.225Z,3.03
2019-06-27T17:06:03.238Z,2.10
2019-06-27T17:06:42.023Z,2.77
2019-06-27T17:07:10.494Z,2.70
2019-06-27T17:07:43.170Z,2.43
2019-06-27T17:08:16.433Z,2.03
2019-06-27T17:08:49.415Z,1.80
2019-06-27T17:09:22.096Z,2.30
2019-06-27T17:09:55.290Z,2.60
2019-06-27T17:10:28.005Z,2.53
2019-06-27T17:11:01.093Z,2.70
2019-06-27T17:11:34.557Z,2.70
2019-06-27T17:12:07.210Z,2.50
2019-06-27T17:12:39.874Z,2.50
2019-06-27T17:13:12.541Z,2.10
2019-06-27T17:13:46.661Z,2.40
2019-06-27T17:14:19.640Z,2.37
2019-06-27T17:14:52.310Z,2.27
2019-06-27T17:15:25.249Z,2.27
2019-06-27T17:15:58.290Z,2.17
2019-06-27T17:16:30.948Z,2.50
2019-06-27T17:17:03.619Z,2.33
2019-06-27T17:17:36.301Z,2.60
2019-06-27T17:18:08.967Z,2.30
2019-06-27T17:18:41.669Z,2.30
2019-06-27T17:19:14.458Z,2.40
2019-06-27T17:19:47.145Z,2.20
2019-06-27T17:20:20.012Z,2.37
2019-06-27T17:20:53.067Z,2.30
2019-06-27T17:21:25.706Z,2.77
2019-06-27T17:21:58.666Z,2.57
2019-06-27T17:22:31.393Z,1.90
2019-06-27T17:23:05.525Z,2.50
2019-06-27T17:23:38.671Z,2.20
2019-06-27T17:24:11.645Z,2.00
2019-06-27T17:24:44.708Z,2.33
2019-06-27T17:25:17.412Z,2.20
2019-06-27T17:25:50.580Z,2.47
2019-06-27T17:26:23.787Z,2.20
2019-06-27T17:26:56.472Z,2.47
2019-06-27T17:27:29.157Z,2.13
2019-06-27T17:28:01.845Z,2.20
2019-06-27T17:28:35.443Z,2.60
2019-06-27T17:29:08.191Z,2.27
2019-06-27T17:29:40.993Z,2.50
2019-06-27T17:30:15.183Z,2.80
2019-06-27T17:30:47.852Z,2.40
2019-06-27T17:31:20.843Z,2.37
2019-06-27T17:31:53.506Z,2.10
2019-06-27T17:32:26.173Z,2.37
2019-06-27T17:32:59.127Z,1.87
2019-06-27T17:33:32.130Z,1.83
2019-06-27T17:34:04.783Z,2.80
2019-06-27T17:34:37.453Z,2.30
2019-06-27T17:35:10.914Z,1.90
2019-06-27T17:35:43.591Z,2.33
2019-06-27T17:36:16.581Z,2.17
2019-06-27T17:36:57.338Z,2.70
2019-06-27T17:37:24.076Z,2.60
2019-06-27T17:37:56.755Z,2.20
2019-06-27T17:38:29.670Z,2.33
2019-06-27T17:39:02.673Z,1.97
2019-06-27T17:39:35.421Z,2.93
2019-06-27T17:40:10.093Z,2.40
2019-06-27T17:40:43.077Z,2.80
2019-06-27T17:41:16.532Z,2.30
2019-06-27T17:41:49.179Z,2.13
2019-06-27T17:42:22.223Z,2.27
2019-06-27T17:42:55.203Z,2.40
2019-06-27T17:43:27.860Z,2.43
2019-06-27T17:44:00.525Z,2.70
2019-06-27T17:44:33.652Z,2.17
2019-06-27T17:45:06.649Z,2.30
2019-06-27T17:45:39.343Z,2.20
2019-06-27T17:46:12.005Z,2.70
2019-06-27T17:46:46.559Z,2.20
2019-06-27T17:47:19.130Z,2.30
2019-06-27T17:47:51.854Z,2.50
2019-06-27T17:48:24.474Z,2.40
2019-06-27T17:48:57.144Z,2.37
2019-06-27T17:49:30.120Z,2.53
2019-06-27T17:50:03.630Z,2.40
2019-06-27T17:50:36.446Z,2.80
2019-06-27T17:51:09.115Z,2.30
2019-06-27T17:51:42.413Z,2.30
2019-06-27T17:52:15.111Z,2.70
2019-06-27T17:52:48.467Z,2.70
2019-06-27T17:53:21.429Z,2.80
2019-06-27T17:53:54.066Z,2.13
2019-06-27T17:54:26.743Z,2.13
2019-06-27T17:54:59.739Z,2.70
2019-06-27T17:55:32.822Z,2.43
2019-06-27T17:56:05.872Z,2.83
2019-06-27T17:56:38.547Z,2.50
2019-06-27T17:57:11.206Z,2.73
2019-06-27T17:57:47.052Z,3.07
2019-06-27T17:58:18.716Z,2.83
2019-06-27T17:58:51.335Z,2.40
2019-06-27T17:59:23.997Z,2.30
2019-06-27T17:59:56.669Z,2.03
2019-06-27T18:00:29.681Z,2.47
2019-06-27T18:01:02.449Z,2.63
2019-06-27T18:01:35.211Z,2.30
2019-06-27T18:02:08.179Z,2.40
2019-06-27T18:02:40.840Z,2.27
2019-06-27T18:03:13.553Z,2.07
2019-06-27T18:03:46.215Z,2.30
2019-06-27T18:04:18.877Z,2.30
2019-06-27T18:04:51.570Z,2.10
2019-06-27T18:05:24.469Z,2.53
2019-06-27T18:05:57.186Z,3.03
2019-06-27T18:06:30.138Z,2.00
2019-06-27T18:07:13.406Z,2.37
2019-06-27T18:07:37.285Z,2.43
2019-06-27T18:08:10.258Z,3.20
2019-06-27T18:08:43.221Z,2.70
2019-06-27T18:09:15.988Z,2.20
2019-06-27T18:09:48.666Z,2.30
2019-06-27T18:10:21.410Z,2.33
2019-06-27T18:10:54.429Z,2.60
2019-06-27T18:11:27.093Z,2.20
2019-06-27T18:11:59.837Z,2.33
2019-06-27T18:12:32.759Z,2.10
2019-06-27T18:13:05.753Z,3.03
2019-06-27T18:13:38.442Z,1.87
2019-06-27T18:14:11.111Z,2.30
2019-06-27T18:14:43.803Z,2.10
2019-06-27T18:15:16.780Z,2.00
2019-06-27T18:15:49.887Z,2.10
2019-06-27T18:16:22.556Z,2.47
2019-06-27T18:16:55.246Z,2.23
2019-06-27T18:17:33.385Z,2.20
2019-06-27T18:18:02.899Z,1.77
2019-06-27T18:18:35.576Z,1.70
2019-06-27T18:19:08.242Z,1.60
2019-06-27T18:19:40.942Z,2.10
2019-06-27T18:20:13.608Z,2.27
2019-06-27T18:20:46.373Z,1.90
2019-06-27T18:21:19.310Z,2.10
2019-06-27T18:21:52.334Z,2.47
2019-06-27T18:22:25.521Z,2.17
2019-06-27T18:22:58.626Z,2.27
2019-06-27T18:23:31.305Z,1.90
2019-06-27T18:24:03.984Z,1.93
2019-06-27T18:24:36.661Z,2.00
2019-06-27T18:25:09.621Z,1.60
2019-06-27T18:25:42.310Z,1.93
2019-06-27T18:26:15.314Z,2.13
2019-06-27T18:26:48.459Z,1.60
2019-06-27T18:27:21.177Z,1.80
2019-06-27T18:27:53.838Z,1.70
2019-06-27T18:28:26.520Z,2.27
2019-06-27T18:28:59.569Z,1.63
2019-06-27T18:29:32.258Z,1.50
2019-06-27T18:30:05.349Z,1.50
2019-06-27T18:30:38.011Z,1.70
2019-06-27T18:31:10.797Z,2.03
2019-06-27T18:31:43.819Z,2.30
2019-06-27T18:32:17.335Z,2.37
2019-06-27T18:32:50.112Z,1.83
2019-06-27T18:33:23.116Z,1.63
2019-06-27T18:33:55.911Z,1.80
2019-06-27T18:34:29.055Z,1.50
2019-06-27T18:35:02.160Z,1.83
2019-06-27T18:35:35.176Z,1.77
2019-06-27T18:36:08.087Z,1.77
2019-06-27T18:36:40.837Z,1.30
2019-06-27T18:37:25.776Z,1.40
2019-06-27T18:37:48.905Z,1.80
2019-06-27T18:38:21.551Z,1.63
2019-06-27T18:38:54.923Z,1.77
2019-06-27T18:39:28.417Z,1.40
2019-06-27T18:40:01.586Z,1.67
2019-06-27T18:40:34.254Z,1.40
2019-06-27T18:41:06.926Z,1.83
2019-06-27T18:41:40.331Z,1.33
2019-06-27T18:42:13.583Z,1.73
2019-06-27T18:42:47.781Z,1.73
2019-06-27T18:43:20.420Z,1.53
2019-06-27T18:43:53.488Z,1.60
2019-06-27T18:44:26.422Z,1.97
2019-06-27T18:44:59.728Z,1.53
2019-06-27T18:45:32.377Z,1.83
2019-06-27T18:46:05.045Z,1.70
2019-06-27T18:46:37.744Z,1.70
2019-06-27T18:47:10.944Z,1.60
2019-06-27T18:47:43.942Z,1.77
2019-06-27T18:48:16.646Z,1.47
2019-06-27T18:48:51.885Z,2.03
2019-06-27T18:49:23.762Z,2.00
2019-06-27T18:49:56.404Z,1.70
2019-06-27T18:50:29.093Z,1.67
2019-06-27T18:51:02.357Z,1.83
2019-06-27T18:51:35.125Z,1.73
2019-06-27T18:52:07.775Z,2.07
2019-06-27T18:52:41.174Z,1.30
2019-06-27T18:53:13.798Z,1.63
2019-06-27T18:53:46.858Z,1.67
2019-06-27T18:54:19.500Z,1.50
2019-06-27T18:54:52.168Z,1.90
2019-06-27T18:55:24.811Z,1.57
2019-06-27T18:55:57.559Z,1.70
2019-06-27T18:56:30.220Z,1.73
2019-06-27T18:57:03.145Z,1.90
2019-06-27T18:57:35.877Z,1.30
2019-06-27T18:58:08.810Z,1.70
2019-06-27T18:58:41.815Z,1.80
2019-06-27T18:59:15.457Z,1.50
2019-06-27T18:59:48.865Z,1.83
2019-06-27T19:00:22.622Z,1.43
2019-06-27T19:00:55.263Z,1.90
2019-06-27T19:01:27.932Z,1.30
2019-06-27T19:02:01.223Z,1.97
2019-06-27T19:02:33.922Z,1.70
2019-06-27T19:03:06.587Z,1.50
2019-06-27T19:03:39.360Z,1.30
2019-06-27T19:04:13.904Z,1.65
2019-06-27T19:04:46.817Z,1.30
2019-06-27T19:05:19.584Z,1.50
2019-06-27T19:05:52.324Z,1.80
2019-06-27T19:06:25.043Z,1.60
2019-06-27T19:06:57.804Z,1.60
2019-06-27T19:07:44.482Z,1.30
2019-06-27T19:08:05.340Z,1.82
2019-06-27T19:08:38.327Z,1.60
2019-06-27T19:09:11.059Z,1.75
2019-06-27T19:09:44.779Z,1.60
2019-06-27T19:10:17.658Z,2.27
2019-06-27T19:10:50.352Z,1.70
2019-06-27T19:11:23.310Z,1.65
2019-06-27T19:11:56.395Z,1.75
2019-06-27T19:12:29.868Z,1.42
2019-06-27T19:13:02.555Z,1.52
2019-06-27T19:13:36.854Z,1.98
2019-06-27T19:14:09.488Z,1.50
2019-06-27T19:14:43.584Z,1.60
2019-06-27T19:15:16.809Z,1.22
2019-06-27T19:15:50.142Z,1.52
2019-06-27T19:16:22.892Z,1.50
2019-06-27T19:16:55.654Z,1.42
2019-06-27T19:17:28.647Z,1.45
2019-06-27T19:18:01.389Z,1.52
2019-06-27T19:18:43.166Z,1.85
2019-06-27T19:19:19.169Z,1.82
2019-06-27T19:19:54.947Z,2.12
2019-06-27T19:20:47.238Z,1.82
2019-06-27T19:21:37.117Z,1.52
2019-06-27T19:22:29.762Z,1.55
2019-06-27T19:23:21.113Z,1.70
2019-06-27T19:23:59.880Z,1.72
2019-06-27T19:24:42.434Z,2.08
2019-06-27T19:25:19.689Z,1.62
2019-06-27T19:25:53.962Z,1.67
2019-06-27T19:26:26.603Z,1.60
2019-06-27T19:26:59.720Z,1.90
2019-06-27T19:27:33.236Z,1.60
2019-06-27T19:28:05.910Z,1.67
2019-06-27T19:28:38.772Z,1.77
2019-06-27T19:29:11.781Z,2.12
2019-06-27T19:29:44.848Z,1.60
2019-06-27T19:30:18.222Z,1.80
2019-06-27T19:30:51.839Z,2.02
2019-06-27T19:31:24.545Z,1.70
2019-06-27T19:31:57.193Z,1.55
2019-06-27T19:32:29.877Z,1.62
2019-06-27T19:33:02.552Z,1.67
2019-06-27T19:33:35.260Z,1.50
2019-06-27T19:34:07.989Z,1.62
2019-06-27T19:34:41.016Z,1.50
2019-06-27T19:35:14.005Z,2.20
2019-06-27T19:35:47.231Z,1.62
2019-06-27T19:36:20.621Z,1.50
2019-06-27T19:36:53.273Z,1.57
2019-06-27T19:37:27.073Z,1.75
2019-06-27T19:38:02.394Z,1.65
2019-06-27T19:38:34.527Z,1.45
2019-06-27T19:39:07.586Z,1.30
2019-06-27T19:39:40.631Z,1.57
2019-06-27T19:40:14.194Z,1.80
2019-06-27T19:40:46.880Z,1.30
2019-06-27T19:41:19.835Z,2.08
2019-06-27T19:41:52.492Z,1.45
2019-06-27T19:42:25.874Z,1.45
2019-06-27T19:42:59.029Z,1.42
2019-06-27T19:43:32.025Z,1.57
2019-06-27T19:44:05.042Z,1.62
2019-06-27T19:44:37.727Z,1.27
2019-06-27T19:45:10.404Z,1.72
2019-06-27T19:45:43.410Z,1.40
2019-06-27T19:46:16.484Z,1.40
2019-06-27T19:46:49.137Z,1.60
2019-06-27T19:47:21.771Z,1.60
2019-06-27T19:47:54.414Z,1.55
2019-06-27T19:48:27.086Z,1.52
2019-06-27T19:48:59.721Z,1.35
2019-06-27T19:49:32.746Z,2.15
2019-06-27T19:50:05.410Z,1.40
2019-06-27T19:50:38.087Z,1.35
2019-06-27T19:51:10.712Z,1.50
2019-06-27T19:51:43.500Z,1.65
2019-06-27T19:52:22.409Z,1.55
2019-06-27T19:52:55.039Z,1.75
2019-06-27T19:53:27.686Z,1.62
2019-06-27T19:54:00.319Z,1.50
2019-06-27T19:54:32.979Z,1.80
2019-06-27T19:55:06.072Z,1.70
2019-06-27T19:55:38.716Z,1.37
2019-06-27T19:56:11.406Z,1.30
2019-06-27T19:56:44.075Z,1.50
2019-06-27T19:57:16.718Z,1.50
2019-06-27T19:57:49.359Z,1.70
2019-06-27T19:58:22.007Z,1.50
2019-06-27T19:58:54.961Z,1.30
2019-06-27T19:59:27.928Z,1.37
2019-06-27T20:00:00.587Z,1.70
2019-06-27T20:00:33.278Z,1.30
2019-06-27T20:01:05.945Z,1.52
2019-06-27T20:01:38.991Z,1.30
2019-06-27T20:02:11.651Z,1.20
2019-06-27T20:02:44.291Z,1.50
2019-06-27T20:03:16.993Z,1.40
2019-06-27T20:03:49.659Z,1.55
2019-06-27T20:04:22.898Z,1.40
2019-06-27T20:04:55.831Z,1.35
2019-06-27T20:05:28.489Z,1.30
2019-06-27T20:06:01.143Z,1.37
2019-06-27T20:06:33.784Z,1.55
2019-06-27T20:07:06.641Z,1.45
2019-06-27T20:07:39.656Z,1.55
2019-06-27T20:08:18.999Z,1.30
2019-06-27T20:08:47.078Z,1.57
2019-06-27T20:09:20.113Z,1.35
2019-06-27T20:09:53.039Z,1.40
2019-06-27T20:10:26.095Z,1.27
2019-06-27T20:10:58.897Z,1.40
2019-06-27T20:11:31.517Z,1.17
2019-06-27T20:12:04.145Z,1.60
2019-06-27T20:12:37.643Z,1.45
2019-06-27T20:13:10.279Z,1.55
2019-06-27T20:13:42.920Z,1.17
2019-06-27T20:14:15.530Z,1.70
2019-06-27T20:14:48.207Z,1.35
2019-06-27T20:15:22.685Z,1.27
2019-06-27T20:15:55.299Z,1.40
2019-06-27T20:16:27.969Z,1.40
2019-06-27T20:17:01.090Z,1.17
2019-06-27T20:17:33.724Z,1.35
2019-06-27T20:18:06.402Z,1.20
2019-06-27T20:18:39.343Z,1.42
2019-06-27T20:19:11.962Z,1.60
2019-06-27T20:19:44.625Z,1.50
2019-06-27T20:20:17.568Z,1.37
2019-06-27T20:20:51.037Z,1.20
2019-06-27T20:21:23.657Z,1.27
2019-06-27T20:21:56.354Z,1.50
2019-06-27T20:22:28.992Z,1.15
2019-06-27T20:23:01.634Z,1.52
2019-06-27T20:23:34.320Z,1.52
2019-06-27T20:24:06.995Z,1.32
2019-06-27T20:24:39.662Z,1.20
2019-06-27T20:25:12.413Z,1.30
2019-06-27T20:25:45.343Z,1.85
2019-06-27T20:26:17.976Z,1.50
2019-06-27T20:26:50.964Z,1.20
2019-06-27T20:27:23.918Z,1.42
2019-06-27T20:27:56.563Z,1.12
2019-06-27T20:28:29.479Z,1.85
2019-06-27T20:29:02.797Z,1.22
2019-06-27T20:29:36.135Z,1.45
2019-06-27T20:30:09.101Z,1.62
2019-06-27T20:30:41.730Z,1.30
2019-06-27T20:31:14.735Z,1.72
2019-06-27T20:31:47.387Z,1.25
2019-06-27T20:32:20.428Z,1.40
2019-06-27T20:32:53.103Z,1.40
2019-06-27T20:33:26.120Z,1.30
2019-06-27T20:33:58.770Z,1.20
2019-06-27T20:34:31.610Z,1.45
2019-06-27T20:35:04.688Z,1.32
2019-06-27T20:35:37.340Z,1.60
2019-06-27T20:36:09.973Z,1.27
2019-06-27T20:36:42.649Z,1.30
2019-06-27T20:37:15.258Z,1.47
2019-06-27T20:37:48.008Z,1.20
2019-06-27T20:38:33.897Z,1.40
2019-06-27T20:38:55.066Z,1.45
2019-06-27T20:39:27.987Z,1.20
2019-06-27T20:40:00.666Z,1.40
2019-06-27T20:40:33.716Z,1.60
2019-06-27T20:41:06.646Z,1.35
2019-06-27T20:41:39.567Z,1.55
2019-06-27T20:42:12.205Z,1.65
2019-06-27T20:42:45.219Z,1.42
2019-06-27T20:43:17.874Z,1.57
2019-06-27T20:43:50.799Z,1.30
2019-06-27T20:44:24.983Z,1.30
2019-06-27T20:44:57.631Z,1.80
2019-06-27T20:45:30.309Z,1.30
2019-06-27T20:46:02.969Z,1.67
2019-06-27T20:46:35.602Z,1.70
2019-06-27T20:47:08.259Z,1.40
2019-06-27T20:47:40.907Z,1.60
2019-06-27T20:48:13.547Z,1.42
2019-06-27T20:48:46.516Z,1.70
2019-06-27T20:49:19.159Z,1.55
2019-06-27T20:49:52.453Z,1.40
2019-06-27T20:50:25.092Z,1.80
2019-06-27T20:50:57.781Z,1.50
2019-06-27T20:51:30.403Z,1.20
2019-06-27T20:52:03.053Z,1.57
2019-06-27T20:52:35.670Z,1.32
2019-06-27T20:53:08.603Z,1.20
2019-06-27T20:53:41.238Z,1.20
2019-06-27T20:54:14.191Z,1.60
2019-06-27T20:54:46.831Z,1.55
2019-06-27T20:55:20.066Z,1.50
2019-06-27T20:55:52.702Z,1.67
2019-06-27T20:56:25.688Z,1.60
2019-06-27T20:56:58.629Z,1.62
2019-06-27T20:57:31.298Z,1.70
2019-06-27T20:58:03.893Z,1.65
2019-06-27T20:58:36.536Z,1.40
2019-06-27T20:59:09.519Z,1.30
2019-06-27T20:59:42.158Z,1.60
2019-06-27T21:00:14.953Z,1.80
2019-06-27T21:00:47.595Z,1.55
2019-06-27T21:01:20.224Z,1.80
2019-06-27T21:01:53.073Z,1.50
2019-06-27T21:02:25.840Z,1.80
2019-06-27T21:02:58.778Z,1.40
2019-06-27T21:03:31.413Z,1.67
2019-06-27T21:04:04.415Z,1.77
2019-06-27T21:04:37.839Z,1.75
2019-06-27T21:05:10.888Z,1.50
2019-06-27T21:05:43.864Z,1.32
2019-06-27T21:06:16.546Z,1.20
2019-06-27T21:06:49.187Z,1.57
2019-06-27T21:07:21.884Z,1.65
2019-06-27T21:07:54.527Z,1.50
2019-06-27T21:08:27.198Z,1.50
2019-06-27T21:08:59.830Z,1.25
2019-06-27T21:09:32.475Z,1.40
2019-06-27T21:10:05.919Z,1.40
2019-06-27T21:10:38.591Z,1.30
2019-06-27T21:11:11.536Z,1.35
2019-06-27T21:11:44.336Z,1.47
2019-06-27T21:12:17.276Z,1.57
2019-06-27T21:12:49.967Z,1.60
2019-06-27T21:13:22.595Z,1.20
2019-06-27T21:13:55.307Z,1.40
2019-06-27T21:14:27.887Z,1.35
2019-06-27T21:15:00.539Z,1.15
2019-06-27T21:15:33.184Z,1.25
2019-06-27T21:16:06.523Z,1.65
2019-06-27T21:16:39.166Z,1.50
2019-06-27T21:17:11.805Z,1.15
2019-06-27T21:17:44.842Z,1.52
2019-06-27T21:18:18.281Z,1.70
2019-06-27T21:18:51.589Z,1.40
2019-06-27T21:19:24.583Z,1.30
2019-06-27T21:19:57.237Z,1.37
2019-06-27T21:20:29.895Z,1.35
2019-06-27T21:21:02.618Z,1.30
2019-06-27T21:21:35.689Z,1.67
2019-06-27T21:22:08.630Z,1.60
2019-06-27T21:22:41.269Z,1.50
2019-06-27T21:23:14.069Z,1.42
2019-06-27T21:23:47.032Z,1.30
2019-06-27T21:24:19.701Z,1.52
2019-06-27T21:24:52.372Z,1.55
2019-06-27T21:25:25.024Z,1.72
2019-06-27T21:25:57.634Z,1.20
2019-06-27T21:26:30.276Z,1.40
2019-06-27T21:27:03.241Z,1.30
2019-06-27T21:27:35.952Z,1.47
2019-06-27T21:28:08.982Z,1.30
2019-06-27T21:28:41.630Z,1.70
2019-06-27T21:29:16.988Z,1.42
2019-06-27T21:29:49.479Z,2.00
2019-06-27T21:30:22.804Z,1.65
2019-06-27T21:30:55.457Z,1.72
2019-06-27T21:31:28.100Z,1.42
2019-06-27T21:32:00.748Z,1.20
2019-06-27T21:32:33.691Z,1.62
2019-06-27T21:33:06.358Z,2.05
2019-06-27T21:33:39.027Z,1.70
2019-06-27T21:34:11.660Z,1.50
2019-06-27T21:34:44.660Z,1.20
2019-06-27T21:35:17.306Z,1.40
2019-06-27T21:35:49.946Z,1.45
2019-06-27T21:36:22.576Z,1.55
2019-06-27T21:36:55.196Z,1.30
2019-06-27T21:37:28.029Z,1.50
2019-06-27T21:38:00.763Z,1.52
2019-06-27T21:38:33.695Z,1.80
2019-06-27T21:39:07.903Z,1.35
2019-06-27T21:39:41.223Z,1.82
2019-06-27T21:40:15.888Z,1.40
2019-06-27T21:40:49.132Z,1.40
2019-06-27T21:41:22.078Z,1.72
2019-06-27T21:41:54.732Z,1.70
2019-06-27T21:42:28.038Z,1.22
2019-06-27T21:43:00.967Z,1.40
2019-06-27T21:43:33.638Z,1.55
2019-06-27T21:44:06.324Z,1.72
2019-06-27T21:44:38.986Z,1.50
2019-06-27T21:45:11.910Z,1.80
2019-06-27T21:45:44.584Z,1.55
2019-06-27T21:46:17.243Z,1.40
2019-06-27T21:46:49.888Z,1.60
2019-06-27T21:47:22.537Z,1.55
2019-06-27T21:47:55.484Z,1.45
2019-06-27T21:48:28.483Z,1.57
2019-06-27T21:49:01.447Z,1.80
2019-06-27T21:49:34.370Z,1.20
2019-06-27T21:50:07.673Z,1.55
2019-06-27T21:50:40.328Z,2.10
2019-06-27T21:51:13.272Z,1.20
2019-06-27T21:51:46.228Z,1.10
2019-06-27T21:52:18.883Z,1.50
2019-06-27T21:52:51.539Z,1.50
2019-06-27T21:53:24.156Z,1.50
2019-06-27T21:53:56.795Z,2.15
2019-06-27T21:54:29.454Z,1.60
2019-06-27T21:55:02.099Z,1.55
2019-06-27T21:55:35.194Z,1.30
2019-06-27T21:56:07.790Z,1.30
2019-06-27T21:56:40.774Z,1.65
2019-06-27T21:57:13.771Z,2.02
2019-06-27T21:57:46.699Z,1.70
2019-06-27T21:58:19.415Z,1.50
2019-06-27T21:58:52.084Z,1.80
2019-06-27T21:59:24.753Z,1.40
2019-06-27T21:59:57.759Z,1.72
2019-06-27T22:00:34.956Z,1.30
2019-06-27T22:01:07.814Z,1.50
2019-06-27T22:01:40.465Z,1.60
2019-06-27T22:02:13.642Z,1.80
2019-06-27T22:02:46.277Z,1.65
2019-06-27T22:03:19.055Z,1.60
2019-06-27T22:03:52.138Z,1.57
2019-06-27T22:04:24.779Z,1.40
2019-06-27T22:04:57.447Z,1.60
2019-06-27T22:05:30.248Z,1.50
2019-06-27T22:06:03.075Z,1.77
2019-06-27T22:06:36.385Z,1.82
2019-06-27T22:07:09.427Z,1.80
2019-06-27T22:07:42.082Z,1.67
2019-06-27T22:08:14.729Z,1.50
2019-06-27T22:08:47.351Z,1.72
2019-06-27T22:09:24.995Z,1.50
2019-06-27T22:09:54.958Z,1.70
2019-06-27T22:10:27.589Z,1.50
2019-06-27T22:11:00.580Z,1.82
2019-06-27T22:11:33.210Z,2.00
2019-06-27T22:12:05.958Z,1.35
2019-06-27T22:12:38.691Z,1.50
2019-06-27T22:13:11.354Z,1.30
2019-06-27T22:13:44.016Z,1.50
2019-06-27T22:14:17.191Z,1.40
2019-06-27T22:14:50.150Z,1.52
2019-06-27T22:15:22.793Z,1.55
2019-06-27T22:15:55.795Z,1.80
2019-06-27T22:16:28.712Z,1.37
2019-06-27T22:17:01.352Z,1.50
2019-06-27T22:17:34.001Z,1.60
2019-06-27T22:18:06.986Z,1.67
2019-06-27T22:18:39.640Z,1.35
2019-06-27T22:19:12.292Z,1.72
2019-06-27T22:19:44.945Z,1.32
2019-06-27T22:20:18.392Z,1.67
2019-06-27T22:20:51.949Z,1.75
2019-06-27T22:21:24.601Z,1.65
2019-06-27T22:21:57.255Z,1.57
2019-06-27T22:22:30.195Z,1.30
2019-06-27T22:23:03.020Z,1.62
2019-06-27T22:23:35.853Z,1.30
2019-06-27T22:24:08.527Z,1.50
2019-06-27T22:24:41.167Z,1.60
2019-06-27T22:25:14.180Z,1.40
2019-06-27T22:25:47.467Z,1.90
2019-06-27T22:26:20.115Z,1.42
2019-06-27T22:26:53.064Z,1.40
2019-06-27T22:27:25.684Z,1.40
2019-06-27T22:27:58.327Z,1.27
2019-06-27T22:28:31.172Z,1.55
2019-06-27T22:29:03.970Z,1.55
2019-06-27T22:29:37.154Z,2.00
2019-06-27T22:30:10.294Z,1.60
2019-06-27T22:30:43.304Z,1.65
2019-06-27T22:31:15.959Z,1.80
2019-06-27T22:31:48.586Z,1.50
2019-06-27T22:32:21.607Z,1.40
2019-06-27T22:32:54.250Z,1.65
2019-06-27T22:33:26.899Z,1.37
2019-06-27T22:33:59.535Z,1.55
2019-06-27T22:34:32.167Z,2.08
2019-06-27T22:35:05.046Z,1.50
2019-06-27T22:35:37.688Z,1.72
2019-06-27T22:36:11.280Z,1.60
2019-06-27T22:36:43.904Z,1.45
2019-06-27T22:37:23.575Z,1.50
2019-06-27T22:38:14.747Z,1.40
2019-06-27T22:39:05.759Z,1.70
2019-06-27T22:39:56.842Z,1.50
2019-06-27T22:40:48.030Z,1.80
2019-06-27T22:41:38.754Z,2.17
2019-06-27T22:42:29.798Z,2.15
2019-06-27T22:43:20.926Z,1.72
2019-06-27T22:44:12.283Z,1.57
2019-06-27T22:45:03.280Z,1.67
2019-06-27T22:45:54.562Z,1.75
2019-06-27T22:46:45.487Z,1.80
2019-06-27T22:47:37.787Z,1.32
2019-06-27T22:48:14.650Z,1.60
2019-06-27T22:48:50.806Z,1.72
2019-06-27T22:49:24.555Z,1.65
2019-06-27T22:49:58.070Z,1.77
2019-06-27T22:50:51.312Z,1.82
2019-06-27T22:51:34.802Z,1.85
2019-06-27T22:52:26.980Z,1.70
2019-06-27T22:53:13.113Z,1.82
2019-06-27T22:53:57.398Z,1.57
2019-06-27T22:54:30.589Z,1.60
2019-06-27T22:55:04.771Z,1.70
2019-06-27T22:55:39.600Z,1.70
2019-06-27T22:56:13.005Z,1.55
2019-06-27T22:56:47.475Z,1.45
2019-06-27T22:57:22.359Z,1.70
2019-06-27T22:57:58.792Z,1.40
2019-06-27T22:58:33.749Z,1.30
2019-06-27T22:59:08.352Z,1.72
2019-06-27T22:59:46.926Z,1.52
2019-06-27T23:00:22.310Z,1.67
2019-06-27T23:00:57.754Z,1.80
2019-06-27T23:01:31.845Z,1.60
2019-06-27T23:02:06.006Z,1.65
2019-06-27T23:02:40.328Z,1.60
2019-06-27T23:03:14.967Z,1.72
2019-06-27T23:03:49.880Z,2.02
2019-06-27T23:04:24.113Z,1.82
2019-06-27T23:04:57.162Z,2.00
2019-06-27T23:05:32.109Z,1.65
2019-06-27T23:06:07.200Z,1.50
2019-06-27T23:06:41.398Z,1.87
2019-06-27T23:07:17.351Z,2.00
2019-06-27T23:07:53.876Z,1.82
2019-06-27T23:08:28.425Z,1.90
2019-06-27T23:09:05.072Z,1.55
2019-06-27T23:09:55.909Z,2.10
2019-06-27T23:10:23.094Z,1.60
2019-06-27T23:10:57.604Z,1.90
2019-06-27T23:11:30.388Z,1.60
2019-06-27T23:12:03.051Z,1.70
2019-06-27T23:12:35.753Z,2.12
2019-06-27T23:13:08.410Z,1.50
2019-06-27T23:13:41.451Z,1.60
2019-06-27T23:14:14.390Z,2.02
2019-06-27T23:14:47.030Z,2.30
2019-06-27T23:15:19.674Z,2.20
2019-06-27T23:15:52.320Z,2.12
2019-06-27T23:16:25.368Z,2.15
2019-06-27T23:16:58.310Z,2.08
2019-06-27T23:17:31.341Z,1.70
2019-06-27T23:18:04.067Z,2.02
2019-06-27T23:18:36.705Z,1.80
2019-06-27T23:19:11.576Z,1.87
2019-06-27T23:19:44.152Z,1.77
2019-06-27T23:20:17.503Z,1.87
2019-06-27T23:20:50.330Z,1.75
2019-06-27T23:21:23.630Z,2.08
2019-06-27T23:21:56.280Z,1.80
2019-06-27T23:22:28.956Z,1.70
2019-06-27T23:23:01.590Z,1.67
2019-06-27T23:23:34.259Z,2.00
2019-06-27T23:24:06.977Z,1.80
2019-06-27T23:24:40.007Z,1.50
2019-06-27T23:25:12.657Z,1.60
2019-06-27T23:25:45.627Z,1.75
2019-06-27T23:26:18.577Z,1.60
2019-06-27T23:26:51.570Z,1.62
2019-06-27T23:27:25.067Z,1.82